Observations for Trim Market St
| Time | AQI | Temp °C | Hum % | Pres Pa | CO μg/m³ | H₂S μg/m³ | NO μg/m³ | NO₂ μg/m³ | O₃ μg/m³ | SO₂ μg/m³ | PM1 μg/m³ | PM2.5 μg/m³ | PM10 μg/m³ |
|---|---|---|---|---|---|---|---|---|---|---|---|---|---|
| Saturday 11 July 2026 | |||||||||||||
| 10:22 | 1 | 35.2 | 31 | 66,355 | 0 | 0 | 0 | 0 | 36.62 | 0 | 0.71 | 3.82 | 4.2 |
| 10:21 | 1 | 35.1 | 31 | 66,345 | 0 | 0 | 0 | 1.71 | 46.69 | 0 | 0.71 | 4.36 | 4.8 |
| 10:20 | 1 | 35.1 | 30 | 66,359 | 0 | 0 | 0 | 0 | 27.16 | 0 | 0 | 3.3 | 3.63 |
| 10:19 | 1 | 35.1 | 31 | 66,355 | 0 | 0 | 0 | 0 | 15.08 | 0 | 0 | 2.74 | 3.02 |
| 10:18 | 1 | 35.1 | 31 | 66,349 | 0 | 0 | 0 | 0 | 6.17 | 0 | 0 | 3.28 | 3.61 |
| 10:17 | 1 | 35.1 | 31 | 66,372 | 0 | 0 | 0 | 0 | 17.67 | 0 | 0.71 | 3.81 | 4.09 |
| 10:16 | 1 | 35.1 | 31 | 66,368 | 0 | 0 | 0 | 0 | 37.38 | 0 | 0 | 2.72 | 2.99 |
| 10:15 | 1 | 35.1 | 31 | 66,360 | 0 | 0 | 0 | 0 | 29.56 | 0 | 0.71 | 4.89 | 5.38 |
| 10:14 | 1 | 35 | 31 | 66,323 | 0 | 0 | 0 | 0 | 0 | 0 | 0.71 | 3.81 | 4.19 |
| 10:13 | 1 | 35 | 31 | 66,333 | 0 | 0 | 0 | 0 | 43.4 | 0 | 0.71 | 3.27 | 3.59 |
| 10:12 | 1 | 34.9 | 31 | 66,339 | 0 | 0 | 0 | 0 | 33.4 | 0 | 0 | 3.26 | 3.59 |
| 10:11 | 1 | 34.9 | 31 | 66,321 | 0 | 0 | 0 | 0 | 14.2 | 0 | 0.71 | 3.8 | 4.95 |
| 10:10 | 1 | 34.9 | 32 | 66,301 | 0 | 0 | 0 | 0 | 12.53 | 0 | 0 | 3.25 | 3.57 |
| 10:07 | 1 | 34.8 | 31 | 66,268 | 0 | 0 | 0 | 0 | 25.5 | 0 | 0.71 | 3.8 | 4.18 |
| 10:06 | 1 | 34.7 | 31 | 66,258 | 0 | 0 | 0 | 0 | 18.89 | 0 | 0 | 2.71 | 2.98 |
| 10:03 | 1 | 34.5 | 32 | 66,258 | 0 | 0 | 0 | 0 | 14.47 | 0 | 0.71 | 3.22 | 3.55 |
| 10:01 | 1 | 34.4 | 32 | 66,246 | 0 | 0 | 0 | 0 | 15.87 | 0 | 0 | 2.66 | 2.93 |
| 10:00 | 1 | 34.3 | 32 | 66,236 | 0 | 0 | 0 | 0 | 44.2 | 0 | 0.71 | 4.3 | 4.74 |
| 09:59 | 1 | 34.3 | 32 | 66,250 | 0 | 0 | 0 | 0 | 32.3 | 0 | 0 | 3.22 | 3.55 |
| 09:58 | 1 | 34.2 | 32 | 66,244 | 0 | 0 | 0 | 0 | 0 | 0 | 0 | 3.77 | 4.15 |